Time;durP1;ratioP1;P1;durP2;ratioP2;P2;SDS_P1;SDS_P2;PMS_P1;PMS_P2;Temp;Humidity;BMP_temperature;BMP_pressure;BME280_temperature;BME280_humidity;BME280_pressure;Samples;Min_cycle;Max_cycle;Signal;HPM_P1;HPM_P2
2022/11/15 00:02:20;;;;;;;51.90;26.50;;;;;;;6.58;84.50;100530.16;124570;1301;99292;-78
2022/11/15 00:05:45;;;;;;;52.40;28.60;;;;;;;6.59;84.27;100529.16;124550;1295;98006;-79
2022/11/15 00:09:09;;;;;;;44.30;24.20;;;;;;;6.62;84.60;100528.44;124555;1302;98993;-79
2022/11/15 00:12:33;;;;;;;46.60;24.00;;;;;;;6.62;84.23;100522.75;124515;1302;98926;-76
2022/11/15 00:16:00;;;;;;;44.30;24.30;;;;;;;6.60;84.46;100518.67;124446;1301;99115;-78
2022/11/15 00:19:24;;;;;;;51.30;27.10;;;;;;;6.53;84.56;100515.86;124541;1301;98167;-79
2022/11/15 00:22:48;;;;;;;49.40;25.30;;;;;;;6.49;84.30;100508.55;124506;1302;98024;-78
2022/11/15 00:26:15;;;;;;;45.10;24.40;;;;;;;6.47;84.52;100504.54;124627;1309;98315;-79
2022/11/15 00:29:43;;;;;;;48.00;26.20;;;;;;;6.50;84.49;100507.60;124543;1309;98476;-79
2022/11/15 00:33:07;;;;;;;46.60;23.80;;;;;;;6.54;84.49;100503.27;124620;1309;98842;-79
2022/11/15 00:36:35;;;;;;;59.20;32.40;;;;;;;6.52;84.39;100497.79;124547;1295;98786;-79
2022/11/15 00:39:59;;;;;;;52.00;28.90;;;;;;;6.50;84.61;100494.89;124569;1319;98046;-79
2022/11/15 00:43:23;;;;;;;48.60;26.30;;;;;;;6.46;84.22;100486.38;124495;1303;99110;-77
2022/11/15 00:46:47;;;;;;;45.60;23.30;;;;;;;6.40;84.65;100485.30;124523;1316;99071;-79
2022/11/15 00:50:11;;;;;;;41.50;22.10;;;;;;;6.32;84.43;100479.89;124543;1309;99098;-76
2022/11/15 00:53:36;;;;;;;43.80;22.70;;;;;;;6.33;84.86;100477.36;124551;1315;98813;-76
2022/11/15 00:57:00;;;;;;;42.00;22.80;;;;;;;6.36;84.69;100477.15;124668;1311;98111;-77
2022/11/15 01:00:25;;;;;;;45.90;23.60;;;;;;;6.38;84.43;100477.09;124504;1309;99126;-77
2022/11/15 01:03:49;;;;;;;48.20;25.00;;;;;;;6.37;84.36;100465.86;124590;1302;99176;-76
2022/11/15 01:07:13;;;;;;;51.30;26.40;;;;;;;6.34;84.52;100462.61;124577;1301;98064;-77
2022/11/15 01:10:39;;;;;;;48.80;26.20;;;;;;;6.28;84.56;100455.23;124617;1295;99165;-77
2022/11/15 01:14:03;;;;;;;47.40;24.10;;;;;;;6.25;84.64;100447.71;124610;1318;98554;-77
2022/11/15 01:17:28;;;;;;;46.30;23.10;;;;;;;6.21;84.86;100445.25;124559;1303;98070;-79
2022/11/15 01:20:52;;;;;;;47.60;24.40;;;;;;;6.23;84.78;100438.39;124610;1295;99090;-77
2022/11/15 01:24:16;;;;;;;47.10;25.20;;;;;;;6.29;85.03;100436.98;124651;1306;98136;-77
2022/11/15 01:27:41;;;;;;;54.90;29.90;;;;;;;6.38;84.71;100434.02;124546;1309;98782;-78
2022/11/15 01:31:09;;;;;;;51.30;27.70;;;;;;;6.40;84.51;100425.39;124598;1303;98016;-77
2022/11/15 01:34:34;;;;;;;47.60;26.70;;;;;;;6.37;84.49;100422.95;124681;1303;99096;-79
2022/11/15 01:37:58;;;;;;;48.10;26.40;;;;;;;6.35;84.56;100418.54;124636;1295;98067;-80
2022/11/15 01:41:24;;;;;;;53.50;25.90;;;;;;;6.33;84.39;100410.56;124636;1307;98149;-80
2022/11/15 01:44:51;;;;;;;50.70;26.10;;;;;;;6.30;84.45;100407.96;124632;1303;99167;-79
2022/11/15 01:48:15;;;;;;;56.90;30.20;;;;;;;6.29;84.67;100408.04;124626;1308;99203;-77
2022/11/15 01:51:40;;;;;;;44.00;25.10;;;;;;;6.33;84.84;100405.29;124678;1303;98040;-79
2022/11/15 01:55:10;;;;;;;48.60;25.60;;;;;;;6.36;84.52;100399.92;124642;1299;98023;-77
2022/11/15 01:58:35;;;;;;;36.40;20.80;;;;;;;6.35;84.80;100392.55;124641;1299;98152;-77
2022/11/15 02:01:59;;;;;;;45.80;24.50;;;;;;;6.31;84.54;100390.21;124537;1301;98062;-78
2022/11/15 02:05:24;;;;;;;43.60;24.10;;;;;;;6.27;84.67;100388.58;124610;1309;99206;-77
2022/11/15 02:08:48;;;;;;;41.90;21.80;;;;;;;6.20;84.66;100384.02;124614;1302;98132;-80
2022/11/15 02:12:14;;;;;;;39.00;20.50;;;;;;;6.14;84.94;100378.13;124666;1302;99182;-78
2022/11/15 02:15:59;;;;;;;40.60;20.60;;;;;;;6.16;84.87;100373.20;124622;1303;99138;-79
2022/11/15 02:19:41;;;;;;;40.90;21.90;;;;;;;6.22;84.77;100368.85;124616;1302;98171;-80
2022/11/15 02:23:29;;;;;;;43.20;23.00;;;;;;;6.29;84.65;100373.79;124669;1300;99163;-79
2022/11/15 02:27:25;;;;;;;42.90;22.10;;;;;;;6.31;84.52;100369.20;124684;1295;98017;-79
2022/11/15 02:30:54;;;;;;;41.20;21.20;;;;;;;6.32;84.64;100373.15;124614;1309;98926;-78
2022/11/15 02:34:29;;;;;;;36.90;18.10;;;;;;;6.28;85.08;100367.98;124627;1302;98093;-79
2022/11/15 02:37:57;;;;;;;40.20;18.90;;;;;;;6.27;84.85;100365.61;124693;1301;98079;-79
2022/11/15 02:41:27;;;;;;;41.90;19.60;;;;;;;6.29;84.94;100366.34;124630;1303;98081;-77
2022/11/15 02:44:54;;;;;;;30.40;17.20;;;;;;;6.33;84.75;100364.42;124446;1308;126718;-77
2022/11/15 02:48:22;;;;;;;38.20;19.70;;;;;;;6.40;84.87;100365.45;124551;1302;98709;-78
2022/11/15 02:51:49;;;;;;;39.40;20.80;;;;;;;6.44;84.81;100353.69;124467;1309;99084;-77
2022/11/15 02:59:07;;;;;;;40.90;21.60;;;;;;;6.44;84.61;100354.23;122882;1324;636412;-80
2022/11/15 03:02:43;;;;;;;37.80;19.40;;;;;;;6.37;84.76;100348.61;125897;1295;107512;-78
2022/11/15 03:06:16;;;;;;;39.10;19.10;;;;;;;6.34;84.91;100342.48;125822;1291;107483;-78
2022/11/15 03:09:47;;;;;;;46.50;21.70;;;;;;;6.35;85.04;100345.25;125814;1291;107360;-76
2022/11/15 03:13:22;;;;;;;38.90;19.70;;;;;;;6.37;84.80;100337.44;125987;1305;128195;-77
2022/11/15 03:16:51;;;;;;;37.30;19.00;;;;;;;6.42;84.86;100333.34;126123;1290;107588;-77
2022/11/15 03:20:18;;;;;;;37.60;19.70;;;;;;;6.42;84.97;100333.14;126065;1291;107307;-78
2022/11/15 03:23:44;;;;;;;41.00;21.20;;;;;;;6.41;84.66;100335.70;126094;1291;107553;-77
2022/11/15 03:27:13;;;;;;;38.30;20.20;;;;;;;6.36;84.96;100327.45;126178;1294;107503;-77
2022/11/15 03:30:40;;;;;;;37.60;17.90;;;;;;;6.32;84.82;100321.91;126056;1289;107580;-79
2022/11/15 03:34:09;;;;;;;34.40;17.50;;;;;;;6.29;84.91;100320.37;126242;1291;107537;-77
2022/11/15 03:37:39;;;;;;;39.60;20.00;;;;;;;6.29;85.12;100315.08;126224;1284;107211;-77
2022/11/15 03:41:06;;;;;;;38.30;19.80;;;;;;;6.32;85.13;100309.91;126235;1284;107991;-75
2022/11/15 03:44:41;;;;;;;38.80;19.90;;;;;;;6.35;85.12;100305.11;126213;1285;107535;-77
2022/11/15 03:48:13;;;;;;;40.20;20.30;;;;;;;6.37;84.91;100302.63;126285;1295;107295;-77
2022/11/15 03:51:38;;;;;;;39.50;20.80;;;;;;;6.37;84.81;100305.79;126289;1286;105751;-79
2022/11/15 03:55:05;;;;;;;40.90;21.10;;;;;;;6.37;84.96;100303.01;126406;1286;107324;-77
2022/11/15 03:58:29;;;;;;;41.20;20.10;;;;;;;6.33;84.90;100302.82;126162;1296;108678;-78
2022/11/15 04:01:53;;;;;;;36.60;18.50;;;;;;;6.29;84.97;100295.99;126270;1285;107657;-79
2022/11/15 04:05:18;;;;;;;38.20;19.40;;;;;;;6.27;85.04;100287.15;127549;1286;107644;-80
2022/11/15 04:08:42;;;;;;;49.50;23.60;;;;;;;6.33;84.91;100289.91;126404;1285;107561;-80
2022/11/15 04:12:06;;;;;;;95.70;38.90;;;;;;;6.36;85.15;100289.16;126415;1296;107506;-81
2022/11/15 04:15:31;;;;;;;48.50;24.60;;;;;;;6.37;85.03;100285.54;126396;1296;107425;-80
2022/11/15 04:26:19;;;;;;;37.90;19.20;;;;;;;6.26;85.18;100275.95;126196;1292;107716;-78
2022/11/15 04:29:43;;;;;;;38.20;18.70;;;;;;;6.25;85.28;100266.27;126447;1282;107300;-80
2022/11/15 04:33:07;;;;;;;37.90;19.70;;;;;;;6.28;85.35;100262.70;126518;1283;105394;-80
2022/11/15 04:40:14;;;;;;;39.10;20.00;;;;;;;6.38;85.11;100258.89;126498;1293;107483;-77
2022/11/15 04:43:38;;;;;;;37.70;19.50;;;;;;;6.36;85.36;100259.62;126582;1289;107518;-81
2022/11/15 04:47:04;;;;;;;37.30;20.20;;;;;;;6.33;85.13;100260.21;126564;1288;107511;-80
2022/11/15 04:50:28;;;;;;;34.80;19.10;;;;;;;6.28;85.03;100255.48;126552;1289;107667;-81
2022/11/15 04:53:52;;;;;;;49.10;24.70;;;;;;;6.22;85.08;100249.73;126886;1288;107517;-79
2022/11/15 04:57:17;;;;;;;33.80;16.60;;;;;;;6.19;85.17;100245.81;126839;1288;107565;-79
2022/11/15 05:00:42;;;;;;;33.90;17.80;;;;;;;6.19;85.62;100235.76;126845;1286;107596;-79
2022/11/15 05:04:21;;;;;;;40.00;20.40;;;;;;;6.24;85.45;100227.34;126931;1288;107521;-79
2022/11/15 05:07:45;;;;;;;35.20;18.40;;;;;;;6.28;85.32;100231.44;126848;1302;107498;-80
2022/11/15 05:11:10;;;;;;;33.70;18.10;;;;;;;6.30;85.38;100224.05;126939;1292;107643;-80
2022/11/15 05:14:34;;;;;;;35.10;17.50;;;;;;;6.27;85.21;100220.20;126754;1282;107495;-82
2022/11/15 05:18:01;;;;;;;36.30;18.70;;;;;;;6.25;85.19;100222.50;126817;1286;107234;-81
2022/11/15 05:21:25;;;;;;;42.90;20.10;;;;;;;6.22;85.30;100218.67;126743;1288;107434;-80
2022/11/15 05:24:49;;;;;;;34.10;16.40;;;;;;;6.23;85.25;100225.32;126916;1281;107352;-81
2022/11/15 05:28:14;;;;;;;32.90;16.70;;;;;;;6.23;85.26;100222.66;126624;1294;107515;-79
2022/11/15 05:31:42;;;;;;;34.40;17.60;;;;;;;6.25;85.56;100225.33;126786;1288;107290;-80
2022/11/15 05:35:09;;;;;;;37.00;18.90;;;;;;;6.29;85.53;100223.91;126673;1281;107400;-79
2022/11/15 05:38:34;;;;;;;33.50;18.50;;;;;;;6.31;85.36;100223.98;126806;1288;107568;-81
2022/11/15 05:42:02;;;;;;;38.10;19.40;;;;;;;6.30;85.48;100221.06;126727;1299;107554;-81
2022/11/15 05:45:27;;;;;;;48.30;25.20;;;;;;;6.26;85.28;100219.73;126660;1283;108087;-79
2022/11/15 05:48:54;;;;;;;37.90;16.90;;;;;;;6.24;85.70;100222.22;126580;1289;107361;-78
2022/11/15 05:52:22;;;;;;;32.70;16.20;;;;;;;6.23;85.89;100224.21;126558;1289;107532;-77
2022/11/15 05:55:47;;;;;;;35.50;17.20;;;;;;;6.26;85.83;100222.80;126684;1286;107235;-80
2022/11/15 05:59:12;;;;;;;36.60;18.60;;;;;;;6.32;85.30;100217.52;126842;1289;107344;-78
2022/11/15 06:02:37;;;;;;;35.40;18.60;;;;;;;6.36;85.55;100219.50;126645;1289;107529;-79
2022/11/15 06:06:01;;;;;;;33.60;17.70;;;;;;;6.40;85.54;100219.02;126594;1289;107449;-78
2022/11/15 06:09:25;;;;;;;34.90;18.10;;;;;;;6.39;85.51;100219.98;126690;1282;106415;-79
2022/11/15 06:12:58;;;;;;;35.40;18.90;;;;;;;6.37;85.58;100219.07;126877;1289;107513;-81
2022/11/15 06:16:23;;;;;;;37.30;17.90;;;;;;;6.35;85.55;100216.26;126903;1281;107566;-80
2022/11/15 06:19:47;;;;;;;34.10;16.30;;;;;;;6.36;85.78;100219.34;126900;1294;107252;-82
2022/11/15 06:23:11;;;;;;;35.20;17.10;;;;;;;6.39;85.47;100224.60;127736;1294;107590;-82
2022/11/15 06:26:35;;;;;;;37.40;18.60;;;;;;;6.45;85.46;100226.66;127579;1283;105934;-83
2022/11/15 06:29:59;;;;;;;36.20;18.00;;;;;;;6.53;85.71;100224.66;127119;1294;107524;-80
2022/11/15 06:33:24;;;;;;;34.10;17.50;;;;;;;6.57;85.53;100224.14;126937;1282;107514;-80
2022/11/15 06:36:48;;;;;;;37.60;18.80;;;;;;;6.59;85.73;100222.73;126888;1304;107151;-80
2022/11/15 06:40:13;;;;;;;35.30;17.90;;;;;;;6.61;85.60;100222.05;126975;1281;107433;-79
2022/11/15 06:43:38;;;;;;;35.90;17.00;;;;;;;6.58;85.44;100222.48;126978;1283;107482;-81
2022/11/15 06:47:03;;;;;;;33.80;17.50;;;;;;;6.59;85.67;100221.11;126747;1282;107532;-79
2022/11/15 06:50:27;;;;;;;37.60;18.70;;;;;;;6.62;85.72;100221.89;126596;1283;107656;-79
2022/11/15 06:53:51;;;;;;;34.70;17.60;;;;;;;6.71;85.87;100224.92;126593;1288;106606;-81
2022/11/15 06:57:16;;;;;;;36.50;18.30;;;;;;;6.77;85.60;100226.85;126668;1289;107589;-79
2022/11/15 07:00:41;;;;;;;37.20;19.30;;;;;;;6.83;85.85;100225.63;126623;1295;108125;-80
2022/11/15 07:04:05;;;;;;;35.80;19.50;;;;;;;6.87;85.89;100224.77;126672;1290;107495;-79
2022/11/15 07:07:29;;;;;;;37.70;19.50;;;;;;;6.90;85.71;100223.34;126712;1284;107795;-80
2022/11/15 07:10:54;;;;;;;35.20;16.30;;;;;;;6.88;85.81;100220.80;126950;1288;107215;-80
2022/11/15 07:14:18;;;;;;;34.40;17.10;;;;;;;6.90;85.53;100219.06;126631;1288;107464;-79
2022/11/15 07:17:42;;;;;;;34.40;18.90;;;;;;;6.93;85.69;100214.55;126728;1282;107466;-80
2022/11/15 07:21:09;;;;;;;34.30;18.30;;;;;;;7.00;85.78;100219.09;126802;1282;107297;-79
2022/11/15 07:24:33;;;;;;;37.40;19.80;;;;;;;7.08;85.67;100215.58;126921;1283;107599;-80
2022/11/15 07:27:59;;;;;;;34.20;18.30;;;;;;;7.14;85.51;100214.36;126737;1281;107533;-77
2022/11/15 07:31:23;;;;;;;35.90;20.40;;;;;;;7.19;85.51;100217.66;126640;1283;107320;-80
2022/11/15 07:34:47;;;;;;;35.60;19.50;;;;;;;7.22;85.56;100217.57;126712;1281;107532;-79
2022/11/15 07:38:11;;;;;;;32.50;16.10;;;;;;;7.23;85.27;100221.52;126585;1282;107506;-80
2022/11/15 07:41:36;;;;;;;28.40;15.50;;;;;;;7.27;85.30;100221.05;126720;1289;107538;-80
2022/11/15 07:45:00;;;;;;;57.40;27.40;;;;;;;7.31;85.40;100220.17;126650;1281;107529;-80
2022/11/15 07:48:25;;;;;;;103.30;46.90;;;;;;;7.36;85.24;100216.87;126798;1294;108866;-79
2022/11/15 07:51:49;;;;;;;72.80;35.20;;;;;;;7.41;85.36;100215.35;126656;1282;107665;-80
2022/11/15 07:55:13;;;;;;;39.90;20.30;;;;;;;7.49;85.30;100218.62;126595;1281;107525;-79
2022/11/15 07:58:38;;;;;;;55.00;26.80;;;;;;;7.53;85.16;100216.85;126685;1279;107432;-79
2022/11/15 08:02:02;;;;;;;238.20;100.00;;;;;;;7.54;85.16;100213.58;126700;1283;107593;-79
2022/11/15 08:05:26;;;;;;;43.50;22.40;;;;;;;7.54;85.17;100211.47;126666;1299;107252;-80
2022/11/15 08:08:51;;;;;;;51.10;28.20;;;;;;;7.56;85.13;100205.42;126692;1289;107274;-80
2022/11/15 08:12:16;;;;;;;165.90;99.20;;;;;;;7.62;85.35;100202.77;126569;1289;107499;-79
2022/11/15 08:15:40;;;;;;;60.80;34.40;;;;;;;7.70;84.95;100196.91;126612;1280;107271;-80
2022/11/15 08:19:05;;;;;;;41.60;22.50;;;;;;;7.79;84.98;100189.02;126766;1283;107235;-79
2022/11/15 08:22:29;;;;;;;39.60;25.10;;;;;;;7.86;84.87;100178.13;126693;1291;107690;-80
2022/11/15 08:25:53;;;;;;;34.20;22.00;;;;;;;7.92;84.91;100177.94;126583;1288;107560;-80
2022/11/15 08:29:18;;;;;;;34.80;20.00;;;;;;;7.97;84.87;100176.80;126674;1282;107530;-80
2022/11/15 08:32:42;;;;;;;33.20;20.00;;;;;;;7.97;84.53;100174.85;126721;1282;107541;-81
2022/11/15 08:36:07;;;;;;;32.90;17.00;;;;;;;7.96;84.73;100173.05;126933;1282;107532;-79
2022/11/15 08:39:31;;;;;;;31.90;17.20;;;;;;;7.98;84.84;100171.94;126778;1289;107563;-80
2022/11/15 08:42:55;;;;;;;33.10;19.10;;;;;;;8.04;84.51;100172.80;127044;1279;107393;-79
2022/11/15 08:46:19;;;;;;;39.20;22.70;;;;;;;8.09;84.43;100173.21;126916;1282;109316;-80
2022/11/15 08:49:43;;;;;;;44.00;24.50;;;;;;;8.20;84.52;100173.00;126873;1282;109250;-79
2022/11/15 08:53:09;;;;;;;42.90;24.90;;;;;;;8.25;84.56;100168.78;126885;1282;106673;-80
2022/11/15 08:56:33;;;;;;;37.30;21.80;;;;;;;8.29;84.21;100165.80;126834;1282;106205;-80
2022/11/15 08:59:57;;;;;;;36.20;22.20;;;;;;;8.33;84.31;100163.69;126612;1281;107447;-81
2022/11/15 09:03:23;;;;;;;32.50;20.70;;;;;;;8.36;84.22;100162.06;127035;1283;107294;-79
2022/11/15 09:06:47;;;;;;;32.40;18.20;;;;;;;8.41;84.19;100156.35;126946;1282;107565;-80
2022/11/15 09:10:12;;;;;;;29.00;16.30;;;;;;;8.46;84.30;100158.20;126627;1283;107506;-80
2022/11/15 09:13:37;;;;;;;34.80;20.30;;;;;;;8.53;84.32;100156.11;126690;1297;107473;-80
2022/11/15 09:17:02;;;;;;;31.40;20.30;;;;;;;8.65;84.16;100149.71;126630;1282;107517;-79
2022/11/15 09:20:26;;;;;;;33.40;20.60;;;;;;;8.73;83.76;100147.93;126719;1290;107558;-79
2022/11/15 09:23:53;;;;;;;55.50;31.30;;;;;;;8.76;83.80;100140.02;126669;1283;107314;-78
2022/11/15 09:27:17;;;;;;;141.20;69.80;;;;;;;8.81;83.69;100138.45;126737;1289;107344;-80
2022/11/15 09:30:42;;;;;;;49.50;27.60;;;;;;;8.85;83.80;100132.19;126723;1281;106270;-80
2022/11/15 09:34:06;;;;;;;41.80;24.50;;;;;;;8.87;83.64;100126.36;126564;1289;107485;-79
2022/11/15 09:37:32;;;;;;;31.10;18.80;;;;;;;8.86;83.77;100120.08;126639;1288;105838;-80
2022/11/15 09:41:18;;;;;;;30.60;20.10;;;;;;;8.88;83.67;100121.70;126631;1283;107418;-82
2022/11/15 09:44:54;;;;;;;34.50;21.40;;;;;;;8.92;83.59;100119.33;126964;1289;106133;-80
2022/11/15 09:48:37;;;;;;;39.20;25.10;;;;;;;9.01;83.28;100123.78;126568;1283;107754;-80
2022/11/15 09:51:55;;;;;;;34.50;21.10;;;;;;;9.02;83.15;100115.00;126540;1283;107462;-78
2022/11/15 09:55:01;;;;;;;33.50;21.00;;;;;;;9.08;83.27;100107.93;126580;1289;107510;-80
2022/11/15 09:58:19;;;;;;;34.40;21.30;;;;;;;9.13;83.18;100103.34;126734;1283;107548;-78
2022/11/15 10:01:37;;;;;;;62.40;33.90;;;;;;;9.16;83.00;100104.87;126566;1283;107477;-78
2022/11/15 10:04:44;;;;;;;84.90;49.70;;;;;;;9.15;83.04;100105.27;126709;1289;107296;-78
2022/11/15 10:08:00;;;;;;;46.30;28.60;;;;;;;9.17;83.21;100101.49;126568;1281;107426;-78
2022/11/15 10:11:08;;;;;;;33.70;20.30;;;;;;;9.22;82.88;100087.73;126589;1289;107492;-78
2022/11/15 10:14:19;;;;;;;28.30;17.60;;;;;;;9.24;82.94;100082.38;126597;1289;107531;-78
2022/11/15 10:17:56;;;;;;;36.70;22.90;;;;;;;9.33;82.87;100081.53;126586;1283;107573;-80
2022/11/15 10:21:13;;;;;;;35.90;21.90;;;;;;;9.39;82.68;100077.15;126649;1283;107281;-78
2022/11/15 10:24:27;;;;;;;35.70;22.50;;;;;;;9.48;82.84;100071.58;126602;1282;106897;-75
2022/11/15 10:27:33;;;;;;;33.30;22.10;;;;;;;9.55;82.43;100064.77;126553;1282;107519;-75
2022/11/15 10:30:41;;;;;;;37.30;24.50;;;;;;;9.62;82.67;100063.70;126641;1275;107514;-75
2022/11/15 10:33:47;;;;;;;86.10;54.40;;;;;;;9.67;82.49;100070.17;126548;1289;106619;-77
2022/11/15 10:37:00;;;;;;;70.90;36.00;;;;;;;9.70;82.48;100063.30;126674;1275;107204;-75
2022/11/15 10:40:17;;;;;;;168.00;68.20;;;;;;;9.72;82.47;100065.27;126640;1281;107486;-75
2022/11/15 10:43:26;;;;;;;46.60;25.50;;;;;;;9.74;82.32;100054.70;126622;1289;107522;-75
2022/11/15 10:46:31;;;;;;;32.80;20.60;;;;;;;9.79;82.43;100049.11;126631;1289;107127;-75
2022/11/15 10:49:37;;;;;;;35.50;21.90;;;;;;;9.84;81.96;100044.19;126970;1289;107500;-75
2022/11/15 10:52:48;;;;;;;78.20;54.00;;;;;;;9.89;82.14;100046.91;126609;1281;105739;-75
2022/11/15 10:55:56;;;;;;;44.30;28.40;;;;;;;9.96;81.99;100041.48;126605;1281;107539;-74
2022/11/15 10:59:02;;;;;;;36.70;23.30;;;;;;;9.98;81.56;100038.27;126608;1275;107985;-75
2022/11/15 11:02:32;;;;;;;50.40;29.90;;;;;;;10.01;81.95;100041.95;126626;1282;107266;-75
2022/11/15 11:05:40;;;;;;;37.70;23.20;;;;;;;10.07;81.90;100037.64;126574;1304;107256;-75
2022/11/15 11:08:58;;;;;;;33.50;22.50;;;;;;;10.08;81.65;100028.94;126559;1282;106734;-75
2022/11/15 11:12:05;;;;;;;34.70;23.30;;;;;;;10.07;81.70;100027.84;126684;1275;106545;-75
2022/11/15 11:15:15;;;;;;;37.10;22.80;;;;;;;10.06;81.39;100028.10;126541;1283;106665;-74
2022/11/15 11:18:27;;;;;;;33.80;22.80;;;;;;;10.04;81.62;100023.86;126616;1281;106626;-74
2022/11/15 11:21:44;;;;;;;33.10;20.20;;;;;;;10.00;81.45;100018.36;126528;1279;105957;-75
2022/11/15 11:25:02;;;;;;;28.50;18.00;;;;;;;9.96;81.35;100014.90;126639;1282;107259;-75
2022/11/15 11:28:24;;;;;;;33.10;20.90;;;;;;;9.91;81.29;100004.19;126541;1281;107497;-74
2022/11/15 11:31:39;;;;;;;31.70;21.70;;;;;;;9.91;81.63;99998.36;126634;1289;107377;-75
2022/11/15 11:34:55;;;;;;;34.20;22.30;;;;;;;9.91;81.35;99991.30;126588;1281;107513;-74
2022/11/15 11:38:17;;;;;;;33.00;22.40;;;;;;;9.91;81.22;99986.11;126572;1275;107552;-75
2022/11/15 11:41:44;;;;;;;37.70;24.20;;;;;;;9.91;81.16;99985.61;126711;1282;107513;-74
2022/11/15 11:44:58;;;;;;;35.30;23.30;;;;;;;9.86;80.98;99982.48;126627;1275;107597;-74
2022/11/15 11:48:13;;;;;;;52.60;31.70;;;;;;;9.81;81.34;99978.91;126672;1281;107416;-75
2022/11/15 11:51:23;;;;;;;37.60;23.90;;;;;;;9.78;81.13;99969.39;126605;1282;107370;-74
2022/11/15 11:54:44;;;;;;;37.50;27.60;;;;;;;9.75;81.28;99967.63;126619;1289;106535;-75
2022/11/15 11:58:00;;;;;;;32.80;20.20;;;;;;;9.71;81.47;99965.48;126616;1281;107627;-75
2022/11/15 12:01:16;;;;;;;30.30;18.70;;;;;;;9.70;81.03;99963.14;126591;1275;107530;-75
2022/11/15 12:04:28;;;;;;;34.00;21.30;;;;;;;9.73;81.32;99960.94;126589;1296;105480;-74
2022/11/15 12:07:37;;;;;;;34.00;21.40;;;;;;;9.76;80.82;99961.11;126645;1281;107491;-74
2022/11/15 12:10:51;;;;;;;34.10;21.60;;;;;;;9.79;81.14;99959.17;126677;1282;107616;-74
2022/11/15 12:14:02;;;;;;;32.20;20.80;;;;;;;9.80;80.56;99953.08;126692;1283;107644;-76
2022/11/15 12:17:11;;;;;;;32.80;20.30;;;;;;;9.78;80.64;99948.85;126715;1282;107355;-75
2022/11/15 12:20:21;;;;;;;31.50;21.00;;;;;;;9.77;81.03;99949.09;126656;1282;107506;-74
2022/11/15 12:23:31;;;;;;;30.60;21.20;;;;;;;9.78;80.94;99948.00;126653;1282;107541;-75
2022/11/15 12:26:41;;;;;;;35.10;22.90;;;;;;;9.77;80.78;99952.83;126653;1288;107558;-74
2022/11/15 12:29:52;;;;;;;38.60;24.40;;;;;;;9.75;80.54;99953.19;126644;1282;107527;-74
2022/11/15 12:33:00;;;;;;;38.80;25.00;;;;;;;9.66;80.35;99946.32;126665;1275;106538;-74
2022/11/15 12:36:09;;;;;;;38.70;23.10;;;;;;;9.53;80.12;99943.32;126504;1282;107525;-74
2022/11/15 12:39:16;;;;;;;33.40;19.40;;;;;;;9.49;80.63;99940.56;126574;1282;107357;-74
2022/11/15 12:42:58;;;;;;;35.20;22.90;;;;;;;9.52;80.63;99940.69;126606;1280;106720;-75
2022/11/15 12:46:08;;;;;;;39.60;24.00;;;;;;;9.52;80.50;99946.83;126589;1296;107483;-75
2022/11/15 12:49:49;;;;;;;36.30;24.20;;;;;;;9.57;80.74;99930.41;126654;1289;107503;-75
2022/11/15 12:53:25;;;;;;;36.70;22.90;;;;;;;9.62;80.64;99934.48;126622;1281;107552;-74
2022/11/15 12:56:30;;;;;;;39.30;24.60;;;;;;;9.60;80.15;99931.92;126679;1282;107504;-75
2022/11/15 12:59:54;;;;;;;39.10;25.30;;;;;;;9.58;80.70;99923.35;126605;1288;106948;-75
2022/11/15 13:03:29;;;;;;;36.60;24.80;;;;;;;9.58;80.48;99927.59;126605;1281;107504;-74
2022/11/15 13:06:41;;;;;;;40.10;25.80;;;;;;;9.55;80.69;99924.02;126589;1275;106830;-74
2022/11/15 13:10:29;;;;;;;40.30;23.50;;;;;;;9.50;80.63;99915.10;126593;1282;107484;-76
2022/11/15 13:13:46;;;;;;;36.00;22.70;;;;;;;9.47;80.48;99907.05;126673;1275;108264;-75
2022/11/15 13:16:59;;;;;;;40.20;24.50;;;;;;;9.45;80.52;99910.27;126548;1282;107538;-74
2022/11/15 13:20:23;;;;;;;40.90;26.10;;;;;;;9.47;80.50;99903.20;126571;1282;107677;-74
2022/11/15 13:23:28;;;;;;;41.00;26.30;;;;;;;9.48;80.54;99899.66;126554;1282;107534;-75
2022/11/15 13:26:34;;;;;;;44.30;28.30;;;;;;;9.48;80.68;99891.84;126580;1289;107592;-74
2022/11/15 13:29:43;;;;;;;50.90;31.20;;;;;;;9.46;80.30;99889.02;126613;1282;108160;-74
2022/11/15 13:32:50;;;;;;;89.10;57.30;;;;;;;9.43;80.68;99892.70;126497;1289;106604;-74
2022/11/15 13:35:58;;;;;;;60.30;37.00;;;;;;;9.39;80.16;99892.88;126588;1279;107529;-74
2022/11/15 13:39:07;;;;;;;50.00;31.50;;;;;;;9.34;80.58;99888.98;126665;1289;107382;-74
2022/11/15 13:42:18;;;;;;;49.50;31.40;;;;;;;9.27;80.37;99882.12;126642;1289;107501;-74
2022/11/15 13:45:24;;;;;;;48.70;28.90;;;;;;;9.20;80.50;99876.05;126679;1282;107551;-76
2022/11/15 13:48:33;;;;;;;50.70;26.30;;;;;;;9.16;80.66;99871.31;126582;1282;107581;-76
2022/11/15 13:51:43;;;;;;;46.00;28.00;;;;;;;9.14;80.62;99868.13;126597;1275;107257;-74
2022/11/15 13:54:57;;;;;;;56.80;32.20;;;;;;;9.12;80.55;99868.63;126837;1279;107606;-74
2022/11/15 13:58:06;;;;;;;46.80;29.40;;;;;;;9.11;80.72;99869.48;126880;1286;107350;-74
2022/11/15 14:01:19;;;;;;;46.90;30.00;;;;;;;9.07;80.72;99871.64;126883;1282;107492;-74
2022/11/15 14:04:29;;;;;;;55.30;34.80;;;;;;;9.00;80.73;99863.83;126815;1278;107390;-75
2022/11/15 14:07:36;;;;;;;50.40;31.80;;;;;;;8.91;80.51;99865.60;126811;1279;105802;-73
2022/11/15 14:10:42;;;;;;;53.00;33.10;;;;;;;8.81;80.70;99871.34;126850;1271;105865;-74
2022/11/15 14:17:34;;;;;;;48.00;28.30;;;;;;;8.68;80.75;99870.48;122805;1324;635815;-75
2022/11/15 14:20:40;;;;;;;49.00;28.30;;;;;;;8.60;80.90;99873.77;125794;1294;107220;-76
2022/11/15 14:23:46;;;;;;;53.80;33.10;;;;;;;8.52;80.64;99876.15;125689;1291;108704;-76
2022/11/15 14:26:52;;;;;;;62.80;34.90;;;;;;;8.41;80.69;99873.42;125775;1293;105639;-76
2022/11/15 14:29:57;;;;;;;52.40;30.80;;;;;;;8.37;80.84;99864.41;125637;1294;183962;-76
2022/11/15 14:33:15;;;;;;;47.20;28.70;;;;;;;8.32;80.86;99868.80;125999;1291;107963;-74
2022/11/15 14:36:22;;;;;;;53.80;33.30;;;;;;;8.22;80.84;99876.35;125998;1291;106754;-76
2022/11/15 14:39:27;;;;;;;69.10;42.60;;;;;;;8.09;80.88;99879.13;126026;1290;107272;-75
2022/11/15 14:42:33;;;;;;;57.80;36.70;;;;;;;7.96;80.75;99877.23;126589;1292;107304;-76
2022/11/15 14:45:39;;;;;;;51.30;31.10;;;;;;;7.81;80.33;99867.63;126529;1281;107597;-76
2022/11/15 14:48:45;;;;;;;56.70;34.60;;;;;;;7.61;80.56;99870.02;126594;1277;107248;-75
2022/11/15 14:51:50;;;;;;;48.90;28.90;;;;;;;7.48;80.60;99867.40;126559;1283;107592;-76
2022/11/15 14:54:57;;;;;;;52.50;28.60;;;;;;;7.37;80.67;99867.48;126535;1282;105389;-76
2022/11/15 14:58:03;;;;;;;55.60;32.30;;;;;;;7.30;80.60;99871.14;126625;1282;107637;-76
2022/11/15 15:01:22;;;;;;;51.30;31.00;;;;;;;7.24;80.84;99869.16;126584;1284;107593;-76
2022/11/15 15:04:28;;;;;;;53.10;32.30;;;;;;;7.19;80.63;99865.79;126501;1277;107274;-77
2022/11/15 15:07:33;;;;;;;51.60;31.60;;;;;;;7.12;80.35;99860.20;126533;1283;107553;-76
2022/11/15 15:10:42;;;;;;;59.80;33.20;;;;;;;7.05;80.07;99865.13;126569;1279;106548;-76
2022/11/15 15:13:47;;;;;;;62.00;35.30;;;;;;;6.93;80.28;99868.54;126671;1284;107389;-76
2022/11/15 15:16:53;;;;;;;63.50;35.80;;;;;;;6.82;80.36;99870.02;126812;1291;107213;-73
2022/11/15 15:19:58;;;;;;;60.40;34.20;;;;;;;6.70;80.72;99862.08;126572;1287;107402;-76
2022/11/15 15:23:04;;;;;;;61.80;31.80;;;;;;;6.63;81.07;99859.33;126685;1287;107512;-76
2022/11/15 15:26:10;;;;;;;70.90;36.00;;;;;;;6.59;81.37;99859.13;126456;1285;107298;-76